createdAt,value
2022-10-03T00:00:55.284Z,99.99
2022-10-03T00:01:55.295Z,99.99
2022-10-03T00:02:55.293Z,99.99
2022-10-03T00:03:55.242Z,99.99
2022-10-03T00:04:55.222Z,99.99
2022-10-03T00:05:55.222Z,99.99
2022-10-03T00:06:55.217Z,99.99
2022-10-03T00:07:55.183Z,99.99
2022-10-03T00:08:55.171Z,99.99
2022-10-03T00:09:55.178Z,99.99
2022-10-03T00:10:55.170Z,99.99
2022-10-03T00:11:55.134Z,99.99
2022-10-03T00:12:55.128Z,99.99
2022-10-03T00:13:55.113Z,99.99
2022-10-03T00:14:55.105Z,99.99
2022-10-03T00:15:55.168Z,99.99
2022-10-03T00:16:55.099Z,99.99
2022-10-03T00:17:55.070Z,99.99
2022-10-03T00:18:55.059Z,99.99
2022-10-03T00:19:55.046Z,99.99
2022-10-03T00:20:55.056Z,99.99
2022-10-03T00:21:55.032Z,99.99
2022-10-03T00:22:55.013Z,99.99
2022-10-03T00:23:55.002Z,99.99
2022-10-03T00:24:54.993Z,99.99
2022-10-03T00:25:55.008Z,99.99
2022-10-03T00:26:54.975Z,99.99
2022-10-03T00:27:55.034Z,99.99
2022-10-03T00:28:54.948Z,99.99
2022-10-03T00:29:54.958Z,99.99
2022-10-03T00:30:54.973Z,99.99
2022-10-03T00:31:55.010Z,99.99
2022-10-03T00:32:54.921Z,99.99
2022-10-03T00:33:54.893Z,99.99
2022-10-03T00:34:54.903Z,99.99
2022-10-03T00:35:54.901Z,99.99
2022-10-03T00:36:54.861Z,99.99
2022-10-03T00:37:54.846Z,99.99
2022-10-03T00:38:54.838Z,99.99
2022-10-03T00:39:54.823Z,99.99
2022-10-03T00:40:54.895Z,99.99
2022-10-03T00:41:54.803Z,99.99
2022-10-03T00:42:54.795Z,99.99
2022-10-03T00:43:54.781Z,99.99
2022-10-03T00:44:54.772Z,99.99
2022-10-03T00:45:54.784Z,99.99
2022-10-03T00:46:54.911Z,99.99
2022-10-03T00:47:54.736Z,99.99
2022-10-03T00:48:54.746Z,99.99
2022-10-03T00:49:54.733Z,99.99
2022-10-03T00:50:54.706Z,99.99
2022-10-03T00:51:54.699Z,99.99
2022-10-03T00:52:54.681Z,99.99
2022-10-03T00:53:54.830Z,99.99
2022-10-03T00:54:54.660Z,99.99
2022-10-03T00:55:54.655Z,99.99
2022-10-03T00:56:54.640Z,99.99
2022-10-03T00:57:54.629Z,99.99
2022-10-03T00:58:54.635Z,99.99
2022-10-03T00:59:54.604Z,99.99
2022-10-03T01:00:54.643Z,99.99
2022-10-03T01:01:54.651Z,99.99
2022-10-03T01:02:54.570Z,99.99
2022-10-03T01:03:54.560Z,99.99
2022-10-03T01:04:54.596Z,99.99
2022-10-03T01:05:54.543Z,99.99
2022-10-03T01:06:54.558Z,99.99
2022-10-03T01:07:54.514Z,99.99
2022-10-03T01:08:54.501Z,99.99
2022-10-03T01:09:54.495Z,99.99
2022-10-03T01:10:54.502Z,99.99
2022-10-03T01:11:54.476Z,99.99
2022-10-03T01:12:54.478Z,99.99
2022-10-03T01:13:54.449Z,99.99
2022-10-03T01:14:54.434Z,99.99
2022-10-03T01:15:54.547Z,99.99
2022-10-03T01:16:54.412Z,99.99
2022-10-03T01:17:54.429Z,99.99
2022-10-03T01:18:54.397Z,99.99
2022-10-03T01:19:54.392Z,99.99
2022-10-03T01:20:54.386Z,99.99
2022-10-03T01:21:54.378Z,99.99
2022-10-03T01:22:54.366Z,99.99
2022-10-03T01:23:54.335Z,99.99
2022-10-03T01:24:54.325Z,99.99
2022-10-03T01:25:54.316Z,99.99
2022-10-03T01:26:54.302Z,99.99
2022-10-03T01:27:54.347Z,99.99
2022-10-03T01:28:54.278Z,99.99
2022-10-03T01:29:54.280Z,99.99
2022-10-03T01:30:54.285Z,99.99
2022-10-03T01:31:54.338Z,99.99
2022-10-03T01:32:54.235Z,99.99
2022-10-03T01:33:54.243Z,99.99
2022-10-03T01:34:54.212Z,99.99
2022-10-03T01:35:54.286Z,99.99
2022-10-03T01:36:54.211Z,99.99
2022-10-03T01:37:54.209Z,99.99
2022-10-03T01:38:54.187Z,99.99
2022-10-03T01:39:54.171Z,99.99
2022-10-03T01:40:54.143Z,99.99
2022-10-03T01:41:54.137Z,99.99
2022-10-03T01:42:54.123Z,99.99
2022-10-03T01:43:54.132Z,99.99
2022-10-03T01:44:54.098Z,99.99
2022-10-03T01:45:54.089Z,99.99
2022-10-03T01:46:54.122Z,99.99
2022-10-03T01:47:54.076Z,99.99
2022-10-03T01:48:54.079Z,99.99
2022-10-03T01:49:54.044Z,99.99
2022-10-03T01:50:54.033Z,99.99
2022-10-03T01:51:54.022Z,99.99
2022-10-03T01:52:54.046Z,99.99
2022-10-03T01:53:54.002Z,99.99
2022-10-03T01:54:53.988Z,99.99
2022-10-03T01:55:53.977Z,99.99
2022-10-03T01:56:53.966Z,99.99
2022-10-03T01:57:54.292Z,99.99
2022-10-03T01:58:53.963Z,99.99
2022-10-03T01:59:53.940Z,99.99
2022-10-03T02:00:53.967Z,99.99
2022-10-03T02:01:53.957Z,99.99
2022-10-03T02:02:53.897Z,99.99
2022-10-03T02:03:53.909Z,99.99
2022-10-03T02:04:53.894Z,99.99
2022-10-03T02:05:53.865Z,99.99
2022-10-03T02:06:53.852Z,99.99
2022-10-03T02:07:53.842Z,99.99
2022-10-03T02:08:53.903Z,99.99
2022-10-03T02:09:53.822Z,99.99
2022-10-03T02:10:53.808Z,99.99
2022-10-03T02:11:53.799Z,99.99
2022-10-03T02:12:53.791Z,99.99
2022-10-03T02:13:53.810Z,99.99
2022-10-03T02:14:53.765Z,99.99
2022-10-03T02:15:53.807Z,99.99
2022-10-03T02:16:53.742Z,99.99
2022-10-03T02:17:53.732Z,99.99
2022-10-03T02:18:53.743Z,99.99
2022-10-03T02:19:53.709Z,99.99
2022-10-03T02:20:53.718Z,99.99
2022-10-03T02:21:53.695Z,99.99
2022-10-03T02:22:53.674Z,99.99
2022-10-03T02:23:53.667Z,99.99
2022-10-03T02:24:53.690Z,99.99
2022-10-03T02:25:53.665Z,99.99
2022-10-03T02:26:56.203Z,99.99
2022-10-03T02:27:53.647Z,99.99
2022-10-03T02:28:53.608Z,99.99
2022-10-03T02:29:53.618Z,99.99
2022-10-03T02:30:53.584Z,99.99
2022-10-03T02:31:53.628Z,99.99
2022-10-03T02:32:53.561Z,99.99
2022-10-03T02:33:53.552Z,99.99
2022-10-03T02:34:53.562Z,99.99
2022-10-03T02:35:53.530Z,99.99
2022-10-03T02:36:53.534Z,99.99
2022-10-03T02:37:53.530Z,99.99
2022-10-03T02:38:53.494Z,99.99
2022-10-03T02:39:53.486Z,99.99
2022-10-03T02:40:53.509Z,99.99
2022-10-03T02:41:53.465Z,99.99
2022-10-03T02:42:53.473Z,99.99
2022-10-03T02:43:53.444Z,99.99
2022-10-03T02:44:53.429Z,99.99
2022-10-03T02:45:53.478Z,99.99
2022-10-03T02:46:53.414Z,99.99
2022-10-03T02:48:00.012Z,99.99
2022-10-03T02:48:54.385Z,99.99
2022-10-03T02:49:53.372Z,99.99
2022-10-03T02:50:53.456Z,99.99
2022-10-03T02:51:53.352Z,99.99
2022-10-03T02:52:53.359Z,99.99
2022-10-03T02:53:53.328Z,99.99
2022-10-03T02:54:53.320Z,99.99
2022-10-03T02:55:53.312Z,99.99
2022-10-03T02:56:53.313Z,99.99
2022-10-03T02:57:53.306Z,99.99
2022-10-03T02:58:53.271Z,99.99
2022-10-03T02:59:53.260Z,99.99
2022-10-03T03:00:53.325Z,99.99
2022-10-03T03:01:53.293Z,99.99
2022-10-03T03:02:53.229Z,99.99
2022-10-03T03:03:53.216Z,99.99
2022-10-03T03:04:53.232Z,99.99
2022-10-03T03:05:53.195Z,99.99
2022-10-03T03:06:53.207Z,99.99
2022-10-03T03:07:53.174Z,99.99
2022-10-03T03:08:53.164Z,99.99
2022-10-03T03:09:53.171Z,99.99
2022-10-03T03:10:53.145Z,99.99
2022-10-03T03:11:53.155Z,99.99
2022-10-03T03:12:53.162Z,99.99
2022-10-03T03:13:53.104Z,99.99
2022-10-03T03:14:53.126Z,99.99
2022-10-03T03:15:53.086Z,99.99
2022-10-03T03:16:53.093Z,99.99
2022-10-03T03:17:53.062Z,99.99
2022-10-03T03:18:53.052Z,99.99
2022-10-03T03:19:53.038Z,99.99
2022-10-03T03:20:53.030Z,99.99
2022-10-03T03:21:53.039Z,99.99
2022-10-03T03:22:53.002Z,99.99
2022-10-03T03:23:52.991Z,99.99
2022-10-03T03:24:52.998Z,99.99
2022-10-03T03:25:53.021Z,99.99
2022-10-03T03:26:52.984Z,99.99
2022-10-03T03:27:52.997Z,99.99
2022-10-03T03:28:55.656Z,99.99
2022-10-03T03:29:52.956Z,99.99
2022-10-03T03:30:52.935Z,99.99
2022-10-03T03:31:52.956Z,99.99
2022-10-03T03:32:52.917Z,99.99
2022-10-03T03:33:52.886Z,99.99
2022-10-03T03:34:52.870Z,99.99
2022-10-03T03:35:52.858Z,99.99
2022-10-03T03:36:52.856Z,99.98
2022-10-03T03:37:52.857Z,99.99
2022-10-03T03:38:52.823Z,99.99
2022-10-03T03:39:52.814Z,99.99
2022-10-03T03:40:52.802Z,99.99
2022-10-03T03:41:52.804Z,99.99
2022-10-03T03:42:52.798Z,99.99
2022-10-03T03:43:52.769Z,99.99
2022-10-03T03:44:52.885Z,99.99
2022-10-03T03:45:52.776Z,99.99
2022-10-03T03:46:52.733Z,99.99
2022-10-03T03:47:52.945Z,99.99
2022-10-03T03:48:52.710Z,99.99
2022-10-03T03:49:52.703Z,99.99
2022-10-03T03:50:52.712Z,99.99
2022-10-03T03:51:52.678Z,99.99
2022-10-03T03:52:52.669Z,99.99
2022-10-03T03:53:52.655Z,99.99
2022-10-03T03:54:52.852Z,99.99
2022-10-03T03:55:52.660Z,99.99
2022-10-03T03:56:52.620Z,99.99
2022-10-03T03:57:52.615Z,99.99
2022-10-03T03:58:52.611Z,99.99
2022-10-03T03:59:52.589Z,99.99
2022-10-03T04:00:52.671Z,99.99
2022-10-03T04:01:52.637Z,99.99
2022-10-03T04:02:52.573Z,99.99
2022-10-03T04:03:52.566Z,99.99
2022-10-03T04:04:52.530Z,99.99
2022-10-03T04:05:52.522Z,99.99
2022-10-03T04:06:52.512Z,99.99
2022-10-03T04:07:52.501Z,99.99
2022-10-03T04:08:52.506Z,99.99
2022-10-03T04:09:52.500Z,99.99
2022-10-03T04:10:52.469Z,99.99
2022-10-03T04:11:52.454Z,99.99
2022-10-03T04:12:52.440Z,99.99
2022-10-03T04:13:52.435Z,99.99
2022-10-03T04:14:52.442Z,99.99
2022-10-03T04:15:52.411Z,99.99
2022-10-03T04:16:52.490Z,99.99
2022-10-03T04:17:52.387Z,99.99
2022-10-03T04:18:52.378Z,99.99
2022-10-03T04:19:52.387Z,99.99
2022-10-03T04:20:52.351Z,99.99
2022-10-03T04:21:52.344Z,99.99
2022-10-03T04:22:52.335Z,99.99
2022-10-03T04:23:52.319Z,99.99
2022-10-03T04:24:52.331Z,99.99
2022-10-03T04:25:52.297Z,99.99
2022-10-03T04:26:52.287Z,99.99
2022-10-03T04:27:52.311Z,99.99
2022-10-03T04:28:52.262Z,99.99
2022-10-03T04:29:55.990Z,99.99
2022-10-03T04:30:52.240Z,99.99
2022-10-03T04:31:52.273Z,99.99
2022-10-03T04:32:52.234Z,99.99
2022-10-03T04:33:52.208Z,99.99
2022-10-03T04:34:52.472Z,99.99
2022-10-03T04:35:52.187Z,99.99
2022-10-03T04:36:52.173Z,99.99
2022-10-03T04:37:52.167Z,99.99
2022-10-03T04:38:52.151Z,99.99
2022-10-03T04:39:52.165Z,99.99
2022-10-03T04:40:52.147Z,99.99
2022-10-03T04:41:52.141Z,99.99
2022-10-03T04:42:52.130Z,99.99
2022-10-03T04:43:52.097Z,99.99
2022-10-03T04:44:52.107Z,99.99
2022-10-03T04:45:52.122Z,99.99
2022-10-03T04:46:52.086Z,99.99
2022-10-03T04:47:52.051Z,99.99
2022-10-03T04:48:52.156Z,99.99
2022-10-03T04:49:52.031Z,99.99
2022-10-03T04:50:52.037Z,99.99
2022-10-03T04:51:55.389Z,99.99
2022-10-03T04:52:52.021Z,99.99
2022-10-03T04:53:51.986Z,99.99
2022-10-03T04:54:51.970Z,99.99
2022-10-03T04:55:51.961Z,99.99
2022-10-03T04:56:51.949Z,99.99
2022-10-03T04:57:51.939Z,99.99
2022-10-03T04:58:51.956Z,99.99
2022-10-03T04:59:51.916Z,99.99
2022-10-03T05:00:51.954Z,99.99
2022-10-03T05:01:51.921Z,99.99
2022-10-03T05:02:51.881Z,99.99
2022-10-03T05:03:51.871Z,99.99
2022-10-03T05:04:54.994Z,99.99
2022-10-03T05:05:51.850Z,99.99
2022-10-03T05:06:51.839Z,99.99
2022-10-03T05:07:51.846Z,99.99
2022-10-03T05:08:51.816Z,99.99
2022-10-03T05:09:51.808Z,99.99
2022-10-03T05:10:51.794Z,99.99
2022-10-03T05:11:51.783Z,99.99
2022-10-03T05:12:51.790Z,99.99
2022-10-03T05:13:51.766Z,99.99
2022-10-03T05:14:51.747Z,99.99
2022-10-03T05:15:51.736Z,99.99
2022-10-03T05:16:51.791Z,99.99
2022-10-03T05:17:51.797Z,99.99
2022-10-03T05:18:51.724Z,99.99
2022-10-03T05:19:51.691Z,99.99
2022-10-03T05:20:51.700Z,99.99
2022-10-03T05:21:51.689Z,99.99
2022-10-03T05:22:51.660Z,99.99
2022-10-03T05:23:51.645Z,99.99
2022-10-03T05:24:51.825Z,99.99
2022-10-03T05:25:51.623Z,99.99
2022-10-03T05:26:51.614Z,99.99
2022-10-03T05:27:51.669Z,99.99
2022-10-03T05:28:51.591Z,99.99
2022-10-03T05:29:51.602Z,99.99
2022-10-03T05:30:51.570Z,99.99
2022-10-03T05:31:51.604Z,99.99
2022-10-03T05:32:51.548Z,99.99
2022-10-03T05:33:51.541Z,99.99
2022-10-03T05:34:51.562Z,99.99
2022-10-03T05:35:51.518Z,99.99
2022-10-03T05:36:51.542Z,99.99
2022-10-03T05:37:51.490Z,99.99
2022-10-03T05:38:51.481Z,99.99
2022-10-03T05:39:51.469Z,99.99
2022-10-03T05:40:51.459Z,99.99
2022-10-03T05:42:10.992Z,99.99
2022-10-03T05:42:52.439Z,99.99
2022-10-03T05:43:51.424Z,99.99
2022-10-03T05:44:51.416Z,99.99
2022-10-03T05:45:51.459Z,99.99
2022-10-03T05:46:51.394Z,99.99
2022-10-03T05:47:51.382Z,99.99
2022-10-03T05:48:51.374Z,99.99
2022-10-03T05:49:51.359Z,99.99
2022-10-03T05:50:51.379Z,99.99
2022-10-03T05:51:51.335Z,99.99
2022-10-03T05:52:51.341Z,99.99
2022-10-03T05:53:51.317Z,99.99
2022-10-03T05:54:51.336Z,99.99
2022-10-03T05:55:51.311Z,99.99
2022-10-03T05:56:51.281Z,99.99
2022-10-03T05:57:51.275Z,99.99
2022-10-03T05:58:51.285Z,99.99
2022-10-03T05:59:51.246Z,99.99
2022-10-03T06:00:51.236Z,99.99
2022-10-03T06:01:51.256Z,99.99
2022-10-03T06:02:51.374Z,99.99
2022-10-03T06:03:51.201Z,99.99
2022-10-03T06:04:51.211Z,99.99
2022-10-03T06:05:51.181Z,99.99
2022-10-03T06:06:51.172Z,99.99
2022-10-03T06:07:51.159Z,99.99
2022-10-03T06:08:51.167Z,99.99
2022-10-03T06:09:51.154Z,99.99
2022-10-03T06:10:51.216Z,99.99
2022-10-03T06:11:51.133Z,99.99
2022-10-03T06:12:51.105Z,99.99
2022-10-03T06:13:51.092Z,99.99
2022-10-03T06:14:51.086Z,99.99
2022-10-03T06:15:51.231Z,99.99
2022-10-03T06:16:51.080Z,99.99
2022-10-03T06:17:51.046Z,99.99
2022-10-03T06:18:51.057Z,99.99
2022-10-03T06:19:51.024Z,99.99
2022-10-03T06:20:51.015Z,99.99
2022-10-03T06:21:51.024Z,99.99
2022-10-03T06:22:51.033Z,99.99
2022-10-03T06:23:50.986Z,99.99
2022-10-03T06:24:50.984Z,99.99
2022-10-03T06:25:50.954Z,99.99
2022-10-03T06:26:50.980Z,99.99
2022-10-03T06:27:51.043Z,99.99
2022-10-03T06:28:50.927Z,99.99
2022-10-03T06:29:50.940Z,99.99
2022-10-03T06:30:50.948Z,99.99
2022-10-03T06:31:50.888Z,99.99
2022-10-03T06:32:50.881Z,99.99
2022-10-03T06:33:50.868Z,99.99
2022-10-03T06:34:50.898Z,99.99
2022-10-03T06:35:50.844Z,99.99
2022-10-03T06:36:50.834Z,99.99
2022-10-03T06:37:50.842Z,99.99
2022-10-03T06:38:50.816Z,99.99
2022-10-03T06:39:50.800Z,99.99
2022-10-03T06:40:50.807Z,99.99
2022-10-03T06:41:50.779Z,99.99
2022-10-03T06:42:50.851Z,99.99
2022-10-03T06:43:50.757Z,99.99
2022-10-03T06:44:50.746Z,99.99
2022-10-03T06:45:50.796Z,99.99
2022-10-03T06:46:50.723Z,99.99
2022-10-03T06:47:50.731Z,99.93
2022-10-03T06:48:50.704Z,99.99
2022-10-03T06:49:50.709Z,99.99
2022-10-03T06:50:50.694Z,99.99
2022-10-03T06:51:50.666Z,99.89
2022-10-03T06:52:50.658Z,99.89
2022-10-03T06:53:50.663Z,99.99
2022-10-03T06:54:50.682Z,99.93
2022-10-03T06:55:50.622Z,99.99
2022-10-03T06:56:50.627Z,99.89
2022-10-03T06:57:50.704Z,99.99
2022-10-03T06:58:50.613Z,99.79
2022-10-03T06:59:50.576Z,99.48
2022-10-03T07:00:50.590Z,99.48
2022-10-03T07:01:50.674Z,99.79
2022-10-03T07:02:50.635Z,99.58
2022-10-03T07:03:50.531Z,99.18
2022-10-03T07:04:50.524Z,99.07
2022-10-03T07:05:50.533Z,99.07
2022-10-03T07:06:50.500Z,99.18
2022-10-03T07:07:50.488Z,99.68
2022-10-03T07:08:50.485Z,99.38
2022-10-03T07:09:50.464Z,98.72
2022-10-03T07:10:50.458Z,99.43
2022-10-03T07:11:50.473Z,98.61
2022-10-03T07:12:50.449Z,98.21
2022-10-03T07:13:50.420Z,98.31
2022-10-03T07:14:50.416Z,97.90
2022-10-03T07:16:20.623Z,98.00
2022-10-03T07:16:51.478Z,97.90
2022-10-03T07:17:50.391Z,98.06
2022-10-03T07:18:50.366Z,97.96
2022-10-03T07:19:50.373Z,97.45
2022-10-03T07:20:50.366Z,97.39
2022-10-03T07:21:50.330Z,97.45
2022-10-03T07:22:50.322Z,97.75
2022-10-03T07:23:50.310Z,97.86
2022-10-03T07:24:50.298Z,96.53
2022-10-03T07:25:50.308Z,97.24
2022-10-03T07:26:50.278Z,96.53
2022-10-03T07:27:51.407Z,96.43
2022-10-03T07:28:50.274Z,96.84
2022-10-03T07:29:50.242Z,96.73
2022-10-03T07:30:50.287Z,96.84
2022-10-03T07:31:50.243Z,96.73
2022-10-03T07:32:50.210Z,96.84
2022-10-03T07:33:50.197Z,96.84
2022-10-03T07:34:50.211Z,96.94
2022-10-03T07:35:50.201Z,96.63
2022-10-03T07:36:50.166Z,96.59
2022-10-03T07:37:50.153Z,96.89
2022-10-03T07:38:50.174Z,96.89
2022-10-03T07:39:50.133Z,96.22
2022-10-03T07:40:50.123Z,96.08
2022-10-03T07:41:50.109Z,95.97
2022-10-03T07:42:50.099Z,96.48
2022-10-03T07:43:50.111Z,96.38
2022-10-03T07:44:50.102Z,96.38
2022-10-03T07:45:50.069Z,95.77
2022-10-03T07:46:50.055Z,95.77
2022-10-03T07:47:50.075Z,95.77
2022-10-03T07:48:50.035Z,95.57
2022-10-03T07:49:50.054Z,95.57
2022-10-03T07:50:50.017Z,95.77
2022-10-03T07:51:49.998Z,94.95
2022-10-03T07:52:50.011Z,95.16
2022-10-03T07:53:49.975Z,95.47
2022-10-03T07:54:49.973Z,95.36
2022-10-03T07:55:49.954Z,94.95
2022-10-03T07:56:49.944Z,95.36
2022-10-03T07:57:49.954Z,95.26
2022-10-03T07:58:49.922Z,95.16
2022-10-03T07:59:49.910Z,95.32
2022-10-03T08:00:49.937Z,95.62
2022-10-03T08:01:49.886Z,95.21
2022-10-03T08:02:49.986Z,95.32
2022-10-03T08:03:49.906Z,95.32
2022-10-03T08:04:49.856Z,94.71
2022-10-03T08:05:49.846Z,95.01
2022-10-03T08:06:49.854Z,95.01
2022-10-03T08:07:49.841Z,95.32
2022-10-03T08:08:49.811Z,95.17
2022-10-03T08:09:49.804Z,94.97
2022-10-03T08:10:49.790Z,95.28
2022-10-03T08:11:49.802Z,94.87
2022-10-03T08:12:49.765Z,94.97
2022-10-03T08:13:49.754Z,95.17
2022-10-03T08:14:49.746Z,94.26
2022-10-03T08:15:49.818Z,94.56
2022-10-03T08:16:49.737Z,94.01
2022-10-03T08:17:49.732Z,93.80
2022-10-03T08:18:49.699Z,94.01
2022-10-03T08:19:49.688Z,93.90
2022-10-03T08:20:49.680Z,94.01
2022-10-03T08:21:49.684Z,93.70
2022-10-03T08:22:49.654Z,93.09
2022-10-03T08:23:49.643Z,92.79
2022-10-03T08:24:49.630Z,93.05
2022-10-03T08:25:49.620Z,93.09
2022-10-03T08:26:49.629Z,92.18
2022-10-03T08:27:49.649Z,92.27
2022-10-03T08:28:49.610Z,92.27
2022-10-03T08:29:49.572Z,92.27
2022-10-03T08:30:49.603Z,92.27
2022-10-03T08:31:49.579Z,92.94
2022-10-03T08:32:49.557Z,93.05
2022-10-03T08:33:49.631Z,92.33
2022-10-03T08:34:49.546Z,92.38
2022-10-03T08:35:49.506Z,91.87
2022-10-03T08:36:49.517Z,92.18
2022-10-03T08:37:49.483Z,92.13
2022-10-03T08:38:49.480Z,91.83
2022-10-03T08:39:49.482Z,92.94
2022-10-03T08:40:49.469Z,91.97
2022-10-03T08:41:49.441Z,91.83
2022-10-03T08:42:49.429Z,92.58
2022-10-03T08:43:49.417Z,92.33
2022-10-03T08:44:49.427Z,92.33
2022-10-03T08:45:49.393Z,92.09
2022-10-03T08:46:49.433Z,92.09
2022-10-03T08:47:49.406Z,92.09
2022-10-03T08:48:49.378Z,92.29
2022-10-03T08:49:49.348Z,92.60
2022-10-03T08:50:49.342Z,91.99
2022-10-03T08:51:49.336Z,91.78
2022-10-03T08:52:49.615Z,91.78
2022-10-03T08:53:49.304Z,91.74
2022-10-03T08:54:49.294Z,92.14
2022-10-03T08:55:49.280Z,91.09
2022-10-03T08:56:49.271Z,91.43
2022-10-03T08:57:49.281Z,90.78
2022-10-03T08:58:49.251Z,91.23
2022-10-03T08:59:49.236Z,91.60
2022-10-03T09:00:49.228Z,90.78
2022-10-03T09:01:49.302Z,89.46
2022-10-03T09:03:02.067Z,90.27
2022-10-03T09:03:50.239Z,90.68
2022-10-03T09:04:49.208Z,90.07
2022-10-03T09:05:49.170Z,90.48
2022-10-03T09:07:15.468Z,90.58
2022-10-03T09:07:50.147Z,90.48
2022-10-03T09:08:49.159Z,90.07
2022-10-03T09:09:49.124Z,89.92
2022-10-03T09:10:49.118Z,90.84
2022-10-03T09:11:49.101Z,90.64
2022-10-03T09:12:49.113Z,90.33
2022-10-03T09:13:49.102Z,90.49
2022-10-03T09:14:49.071Z,90.53
2022-10-03T09:15:49.128Z,89.48
2022-10-03T09:16:49.049Z,89.37
2022-10-03T09:17:49.058Z,88.76
2022-10-03T09:18:49.025Z,88.87
2022-10-03T09:19:49.012Z,89.22
2022-10-03T09:20:49.047Z,89.62
2022-10-03T09:21:48.991Z,89.52
2022-10-03T09:22:48.983Z,90.03
2022-10-03T09:23:49.374Z,90.37
2022-10-03T09:24:48.962Z,89.76
2022-10-03T09:25:48.948Z,89.36
2022-10-03T09:26:48.936Z,89.66
2022-10-03T09:27:48.970Z,89.61
2022-10-03T09:28:48.934Z,89.91
2022-10-03T09:29:48.902Z,89.56
2022-10-03T09:30:48.895Z,90.37
2022-10-03T09:31:48.961Z,90.48
2022-10-03T09:32:48.891Z,90.62
2022-10-03T09:33:48.858Z,91.33
2022-10-03T09:34:48.845Z,91.13
2022-10-03T09:35:48.835Z,91.19
2022-10-03T09:36:48.841Z,91.29
2022-10-03T09:37:48.851Z,91.19
2022-10-03T09:38:48.803Z,91.19
2022-10-03T09:39:48.791Z,90.17
2022-10-03T09:40:53.244Z,90.74
2022-10-03T09:41:48.772Z,90.53
2022-10-03T09:42:48.776Z,89.42
2022-10-03T09:43:48.749Z,89.42
2022-10-03T09:44:48.734Z,89.22
2022-10-03T09:45:48.724Z,89.72
2022-10-03T09:46:48.808Z,89.42
2022-10-03T09:47:48.731Z,88.60
2022-10-03T09:48:48.691Z,88.91
2022-10-03T09:49:48.682Z,89.68
2022-10-03T09:50:48.668Z,89.42
2022-10-03T09:51:48.660Z,88.76
2022-10-03T09:52:48.690Z,89.17
2022-10-03T09:53:48.634Z,88.76
2022-10-03T09:54:48.625Z,88.81
2022-10-03T09:55:48.613Z,89.31
2022-10-03T09:56:48.626Z,89.01
2022-10-03T09:57:48.595Z,89.28
2022-10-03T09:58:48.607Z,89.28
2022-10-03T09:59:48.590Z,89.68
2022-10-03T10:00:48.601Z,89.37
2022-10-03T10:01:48.547Z,89.48
2022-10-03T10:02:48.554Z,88.06
2022-10-03T10:03:48.576Z,87.92
2022-10-03T10:04:55.246Z,88.01
2022-10-03T10:05:49.504Z,87.71
2022-10-03T10:06:48.495Z,88.48
2022-10-03T10:07:48.507Z,87.67
2022-10-03T10:08:48.486Z,87.87
2022-10-03T10:09:48.458Z,86.96
2022-10-03T10:10:48.465Z,85.64
2022-10-03T10:11:48.460Z,85.47
2022-10-03T10:12:48.424Z,85.17
2022-10-03T10:14:06.615Z,85.84
2022-10-03T10:14:49.400Z,86.65
2022-10-03T10:15:48.433Z,86.55
2022-10-03T10:16:48.854Z,87.06
2022-10-03T10:17:48.390Z,86.41
2022-10-03T10:18:48.358Z,85.33
2022-10-03T10:19:48.348Z,86.35
2022-10-03T10:20:48.335Z,86.31
2022-10-03T10:21:48.325Z,86.82
2022-10-03T10:22:48.331Z,86.91
2022-10-03T10:23:48.303Z,86.37
2022-10-03T10:24:48.304Z,86.00
2022-10-03T10:25:48.284Z,85.56
2022-10-03T10:26:48.277Z,85.25
2022-10-03T10:27:48.328Z,85.56
2022-10-03T10:28:48.246Z,84.34
2022-10-03T10:29:48.237Z,84.64
2022-10-03T10:30:48.223Z,85.25
2022-10-03T10:31:48.291Z,84.85
2022-10-03T10:32:48.250Z,85.56
2022-10-03T10:33:48.191Z,86.63
2022-10-03T10:34:48.179Z,85.76
2022-10-03T10:35:48.173Z,85.15
2022-10-03T10:36:48.156Z,85.36
2022-10-03T10:37:48.147Z,85.36
2022-10-03T10:38:48.159Z,85.15
2022-10-03T10:39:48.124Z,85.15
2022-10-03T10:40:48.132Z,84.75
2022-10-03T10:41:48.103Z,85.05
2022-10-03T10:42:48.091Z,84.55
2022-10-03T10:43:48.081Z,84.64
2022-10-03T10:44:48.096Z,84.70
2022-10-03T10:45:48.080Z,84.61
2022-10-03T10:46:48.133Z,85.01
2022-10-03T10:47:48.038Z,84.70
2022-10-03T10:48:48.024Z,84.27
2022-10-03T10:49:48.015Z,84.06
2022-10-03T10:50:48.001Z,83.86
2022-10-03T10:51:48.013Z,83.76
2022-10-03T10:52:47.984Z,83.25
2022-10-03T10:53:47.968Z,83.01
2022-10-03T10:54:47.956Z,82.81
2022-10-03T10:55:47.950Z,83.27
2022-10-03T10:56:47.972Z,82.46
2022-10-03T10:57:47.944Z,82.16
2022-10-03T10:58:48.045Z,82.26
2022-10-03T10:59:47.903Z,81.76
2022-10-03T11:00:47.930Z,81.09
2022-10-03T11:01:47.880Z,81.49
2022-10-03T11:02:47.869Z,81.39
2022-10-03T11:03:48.169Z,81.65
2022-10-03T11:04:47.908Z,82.16
2022-10-03T11:05:47.850Z,80.44
2022-10-03T11:06:47.823Z,80.54
2022-10-03T11:07:51.836Z,81.25
2022-10-03T11:08:48.819Z,81.45
2022-10-03T11:09:47.834Z,81.85
2022-10-03T11:10:47.777Z,81.65
2022-10-03T11:11:47.768Z,80.34
2022-10-03T11:12:47.777Z,80.34
2022-10-03T11:13:47.745Z,79.13
2022-10-03T11:14:47.738Z,79.53
2022-10-03T11:15:47.759Z,80.64
2022-10-03T11:16:47.833Z,79.93
2022-10-03T11:17:47.702Z,80.60
2022-10-03T11:18:47.687Z,80.64
2022-10-03T11:19:47.702Z,80.00
2022-10-03T11:20:47.664Z,80.60
2022-10-03T11:21:47.659Z,80.20
2022-10-03T11:22:47.649Z,79.90
2022-10-03T11:23:47.633Z,80.40
2022-10-03T11:24:47.644Z,80.30
2022-10-03T11:25:47.613Z,79.13
2022-10-03T11:26:47.600Z,78.52
2022-10-03T11:27:47.592Z,78.62
2022-10-03T11:28:47.687Z,78.21
2022-10-03T11:29:47.589Z,77.71
2022-10-03T11:30:47.556Z,77.81
2022-10-03T11:31:47.613Z,78.42
2022-10-03T11:32:47.535Z,78.52
2022-10-03T11:33:47.531Z,75.82
2022-10-03T11:34:47.532Z,76.29
2022-10-03T11:35:47.503Z,75.68
2022-10-03T11:36:47.489Z,75.18
2022-10-03T11:37:47.478Z,75.99
2022-10-03T11:38:47.486Z,76.97
2022-10-03T11:39:47.454Z,75.24
2022-10-03T11:40:47.441Z,74.27
2022-10-03T11:41:47.431Z,75.45
2022-10-03T11:42:47.420Z,75.75
2022-10-03T11:43:47.439Z,76.26
2022-10-03T11:44:47.418Z,75.85
2022-10-03T11:45:47.433Z,76.46
2022-10-03T11:46:47.379Z,75.81
2022-10-03T11:47:47.386Z,76.93
2022-10-03T11:48:47.353Z,75.57
2022-10-03T11:49:47.371Z,73.86
2022-10-03T11:50:47.331Z,74.16
2022-10-03T11:51:51.508Z,75.04
2022-10-03T11:52:48.307Z,73.52
2022-10-03T11:53:47.321Z,73.32
2022-10-03T11:54:47.290Z,74.53
2022-10-03T11:55:47.281Z,73.62
2022-10-03T11:56:47.267Z,73.11
2022-10-03T11:57:47.275Z,75.64
2022-10-03T11:58:47.242Z,72.55
2022-10-03T11:59:47.232Z,73.46
2022-10-03T12:00:47.239Z,72.95
2022-10-03T12:01:51.348Z,74.26
2022-10-03T12:02:47.376Z,73.35
2022-10-03T12:03:47.188Z,74.06
2022-10-03T12:04:47.184Z,73.25
2022-10-03T12:05:47.165Z,74.97
2022-10-03T12:06:47.152Z,72.85
2022-10-03T12:07:47.263Z,73.59
2022-10-03T12:08:47.132Z,72.81
2022-10-03T12:09:47.121Z,73.52
2022-10-03T12:10:47.111Z,75.04
2022-10-03T12:11:47.100Z,74.13
2022-10-03T12:12:47.090Z,74.84
2022-10-03T12:13:47.260Z,76.39
2022-10-03T12:14:47.074Z,77.57
2022-10-03T12:15:47.055Z,74.07
2022-10-03T12:16:47.140Z,74.98
2022-10-03T12:17:47.041Z,76.50
2022-10-03T12:18:47.048Z,76.29
2022-10-03T12:19:47.008Z,76.39
2022-10-03T12:20:46.996Z,76.09
2022-10-03T12:21:46.987Z,76.39
2022-10-03T12:22:46.973Z,76.79
2022-10-03T12:23:46.987Z,76.19
2022-10-03T12:24:46.954Z,75.68
2022-10-03T12:25:46.944Z,75.38
2022-10-03T12:26:46.928Z,74.40
2022-10-03T12:27:46.949Z,74.40
2022-10-03T12:28:46.906Z,75.42
2022-10-03T12:29:46.898Z,73.80
2022-10-03T12:30:46.909Z,75.42
2022-10-03T12:31:46.968Z,73.09
2022-10-03T12:32:46.878Z,74.00
2022-10-03T12:33:46.880Z,74.91
2022-10-03T12:34:46.840Z,75.21
2022-10-03T12:35:46.829Z,75.31
2022-10-03T12:36:46.817Z,77.44
2022-10-03T12:37:46.809Z,75.31
2022-10-03T12:38:50.916Z,76.23
2022-10-03T12:39:46.805Z,75.62
2022-10-03T12:40:46.777Z,75.52
2022-10-03T12:41:46.782Z,77.24
2022-10-03T12:42:46.847Z,78.21
2022-10-03T12:43:46.769Z,76.09
2022-10-03T12:44:46.729Z,77.30
2022-10-03T12:45:46.757Z,77.81
2022-10-03T12:46:46.705Z,78.01
2022-10-03T12:47:56.775Z,77.61
2022-10-03T12:48:47.723Z,77.20
2022-10-03T12:49:46.684Z,77.50
2022-10-03T12:50:46.663Z,77.10
2022-10-03T12:51:46.672Z,74.87
2022-10-03T12:52:46.662Z,75.79